Time;durP1;ratioP1;P1;durP2;ratioP2;P2;SDS_P1;SDS_P2;PMS_P1;PMS_P2;Temp;Humidity;BMP_temperature;BMP_pressure;BME280_temperature;BME280_humidity;BME280_pressure;Samples;Min_cycle;Max_cycle;Signal;HPM_P1;HPM_P2
2023/05/28 00:01:32;;;;;;;8.43;3.58;;;16.80;77.80;;;;;;5055510;28;20056;-80
2023/05/28 00:03:58;;;;;;;8.73;3.33;;;16.70;77.70;;;;;;5055855;28;20413;-80
2023/05/28 00:06:23;;;;;;;6.68;2.85;;;16.70;77.70;;;;;;5055935;28;20029;-79
2023/05/28 00:08:49;;;;;;;7.70;2.70;;;16.70;78.00;;;;;;5060093;28;20121;-79
2023/05/28 00:11:15;;;;;;;11.70;3.03;;;16.60;78.10;;;;;;5091169;28;20123;-80
2023/05/28 00:13:40;;;;;;;10.63;3.13;;;16.60;78.40;;;;;;5074188;28;20393;-79
2023/05/28 00:16:06;;;;;;;6.13;2.92;;;16.50;78.30;;;;;;5075812;28;20032;-79
2023/05/28 00:18:32;;;;;;;7.38;3.10;;;16.50;78.70;;;;;;5075106;28;20024;-81
2023/05/28 00:20:58;;;;;;;7.55;2.80;;;16.40;78.90;;;;;;5091496;28;20025;-79
2023/05/28 00:23:24;;;;;;;7.88;2.90;;;16.40;79.00;;;;;;5074752;28;20037;-79
2023/05/28 00:25:49;;;;;;;7.68;2.88;;;16.40;78.80;;;;;;5075104;28;20458;-79
2023/05/28 00:28:15;;;;;;;6.10;2.72;;;16.40;78.30;;;;;;5074473;28;20037;-79
2023/05/28 00:30:41;;;;;;;7.95;2.85;;;16.30;78.10;;;;;;5090768;28;20081;-80
2023/05/28 00:33:07;;;;;;;9.10;3.15;;;16.30;78.20;;;;;;5074705;28;20082;-79
2023/05/28 00:35:32;;;;;;;10.27;2.53;;;16.30;78.30;;;;;;5073712;28;20016;-81
2023/05/28 00:37:58;;;;;;;8.13;2.55;;;16.20;78.70;;;;;;5074367;28;20059;-79
2023/05/28 00:40:23;;;;;;;6.00;2.70;;;16.20;79.10;;;;;;5090979;28;20461;-79
2023/05/28 00:42:51;;;;;;;7.82;2.60;;;16.20;79.00;;;;;;5075062;28;20028;-79
2023/05/28 00:45:17;;;;;;;6.85;3.15;;;16.20;79.40;;;;;;5075222;28;20028;-79
2023/05/28 00:47:43;;;;;;;6.63;2.65;;;16.20;79.30;;;;;;5073653;28;20132;-79
2023/05/28 00:50:10;;;;;;;8.27;2.38;;;16.20;79.10;;;;;;5073964;28;20059;-79
2023/05/28 00:52:36;;;;;;;8.90;2.97;;;16.20;79.00;;;;;;5073491;28;20489;-80
2023/05/28 00:55:09;;;;;;;7.70;2.60;;;16.10;79.00;;;;;;5074976;28;20474;-79
2023/05/28 00:57:36;;;;;;;8.52;2.83;;;16.10;79.20;;;;;;5073686;28;20119;-79
2023/05/28 01:00:05;;;;;;;7.82;2.90;;;16.10;79.30;;;;;;5074683;28;20587;-80
2023/05/28 01:02:31;;;;;;;8.68;3.00;;;16.00;79.60;;;;;;5075163;28;20045;-80
2023/05/28 01:04:56;;;;;;;9.40;2.95;;;16.00;79.80;;;;;;5074661;28;20028;-80
2023/05/28 01:07:23;;;;;;;6.30;2.47;;;15.90;79.40;;;;;;5073783;28;20025;-79
2023/05/28 01:09:48;;;;;;;7.75;2.60;;;15.80;80.00;;;;;;5075080;28;20107;-80
2023/05/28 01:12:14;;;;;;;7.47;2.72;;;15.80;79.80;;;;;;5091177;28;20452;-80
2023/05/28 01:14:40;;;;;;;6.65;2.67;;;15.80;79.30;;;;;;5090141;28;20123;-80
2023/05/28 01:17:06;;;;;;;6.70;2.50;;;15.80;79.40;;;;;;5074665;28;20066;-80
2023/05/28 01:19:32;;;;;;;10.80;2.80;;;15.70;79.10;;;;;;5074724;28;20429;-80
2023/05/28 01:22:05;;;;;;;8.93;2.85;;;15.80;79.40;;;;;;5074338;28;20048;-80
2023/05/28 01:24:39;;;;;;;8.13;2.80;;;15.70;79.80;;;;;;5073624;28;20071;-80
2023/05/28 01:27:06;;;;;;;5.35;2.50;;;15.80;79.90;;;;;;5073970;28;20039;-79
2023/05/28 01:29:31;;;;;;;8.00;2.70;;;15.80;79.80;;;;;;5074836;28;20029;-79
2023/05/28 01:31:57;;;;;;;6.82;2.75;;;15.80;79.70;;;;;;5072985;28;20093;-80
2023/05/28 01:34:23;;;;;;;7.30;2.92;;;15.70;79.40;;;;;;5073913;28;20028;-79
2023/05/28 01:36:57;;;;;;;4.93;2.53;;;15.70;79.40;;;;;;5072980;28;20540;-80
2023/05/28 01:39:26;;;;;;;8.07;2.65;;;15.60;79.50;;;;;;5073328;28;20592;-80
2023/05/28 01:41:53;;;;;;;5.47;2.45;;;15.70;80.00;;;;;;5072966;28;20021;-80
2023/05/28 01:44:19;;;;;;;5.53;2.33;;;15.60;80.20;;;;;;5073409;28;20489;-79
2023/05/28 01:46:46;;;;;;;6.63;2.50;;;15.60;80.40;;;;;;5073990;28;20021;-80
2023/05/28 01:49:12;;;;;;;5.93;2.75;;;15.60;80.10;;;;;;5074492;28;20025;-80
2023/05/28 01:51:38;;;;;;;6.00;2.17;;;15.50;80.00;;;;;;5089652;28;20020;-80
2023/05/28 01:54:04;;;;;;;5.60;2.28;;;15.60;80.00;;;;;;5074115;28;20027;-80
2023/05/28 01:56:30;;;;;;;5.13;2.58;;;15.50;80.50;;;;;;5089619;28;20054;-80
2023/05/28 01:58:55;;;;;;;7.78;2.42;;;15.50;80.70;;;;;;5072630;28;20059;-79
2023/05/28 02:01:28;;;;;;;5.32;2.40;;;15.50;80.50;;;;;;5089752;28;20140;-79
2023/05/28 02:03:55;;;;;;;6.28;2.38;;;15.50;80.30;;;;;;5073529;28;20016;-79
2023/05/28 02:06:21;;;;;;;5.85;3.00;;;15.50;80.20;;;;;;5089746;28;20106;-79
2023/05/28 02:08:47;;;;;;;5.50;2.45;;;15.50;80.20;;;;;;5089388;28;20060;-79
2023/05/28 02:11:12;;;;;;;7.32;2.63;;;15.50;80.60;;;;;;5072664;28;20029;-79
2023/05/28 02:13:39;;;;;;;10.52;2.53;;;15.40;80.90;;;;;;5072793;28;20031;-80
2023/05/28 02:16:05;;;;;;;6.78;2.72;;;15.40;81.20;;;;;;5073381;28;20055;-81
2023/05/28 02:18:32;;;;;;;7.35;3.17;;;15.40;81.00;;;;;;5072459;28;20446;-79
2023/05/28 02:20:58;;;;;;;8.05;2.65;;;15.40;81.00;;;;;;5072243;28;20063;-79
2023/05/28 02:23:23;;;;;;;6.22;2.95;;;15.40;81.90;;;;;;5089313;28;20032;-79
2023/05/28 02:25:49;;;;;;;8.82;2.60;;;15.30;81.50;;;;;;5073017;28;20029;-80
2023/05/28 02:28:15;;;;;;;5.70;2.70;;;15.30;81.90;;;;;;5073665;28;20024;-80
2023/05/28 02:30:40;;;;;;;7.45;3.00;;;15.30;82.20;;;;;;5074271;28;20028;-79
2023/05/28 02:33:06;;;;;;;10.82;3.33;;;15.30;81.80;;;;;;5081302;28;20024;-79
2023/05/28 02:35:32;;;;;;;6.72;2.70;;;15.20;82.50;;;;;;5073999;28;20128;-79
2023/05/28 02:37:57;;;;;;;9.50;2.83;;;15.20;82.70;;;;;;5089191;28;20449;-79
2023/05/28 02:40:23;;;;;;;8.93;2.42;;;15.20;82.80;;;;;;5073689;28;20036;-79
2023/05/28 02:42:48;;;;;;;11.15;2.70;;;15.20;82.60;;;;;;5072466;28;20031;-80
2023/05/28 02:45:14;;;;;;;6.10;2.85;;;15.20;82.80;;;;;;5073886;28;20036;-79
2023/05/28 02:47:40;;;;;;;7.15;2.53;;;15.20;82.80;;;;;;5073176;28;20025;-80
2023/05/28 02:50:06;;;;;;;7.72;2.65;;;15.10;83.10;;;;;;5072820;28;20033;-79
2023/05/28 02:52:31;;;;;;;8.32;2.60;;;15.10;83.10;;;;;;5073018;28;20052;-80
2023/05/28 02:54:57;;;;;;;7.40;2.90;;;15.10;83.50;;;;;;5074003;28;20036;-79
2023/05/28 02:57:23;;;;;;;7.45;2.72;;;15.00;83.60;;;;;;5089974;28;20032;-79
2023/05/28 02:59:48;;;;;;;8.82;2.95;;;15.00;83.70;;;;;;5073041;28;20064;-79
2023/05/28 03:02:14;;;;;;;7.70;2.60;;;15.00;83.80;;;;;;5074438;28;20051;-79
2023/05/28 03:04:40;;;;;;;6.50;2.45;;;15.00;84.10;;;;;;5080060;28;20021;-79
2023/05/28 03:07:06;;;;;;;5.90;2.75;;;14.90;84.20;;;;;;5084223;28;20021;-79
2023/05/28 03:09:31;;;;;;;5.95;2.80;;;14.80;84.30;;;;;;5083375;28;20028;-79
2023/05/28 03:11:57;;;;;;;6.68;2.90;;;14.80;85.20;;;;;;5072397;28;20090;-81
2023/05/28 03:14:22;;;;;;;7.80;2.70;;;14.80;84.90;;;;;;5089140;28;20020;-80
2023/05/28 03:16:48;;;;;;;9.00;2.85;;;14.80;84.80;;;;;;5075770;28;20465;-81
2023/05/28 03:19:14;;;;;;;6.03;2.65;;;14.80;85.50;;;;;;5076462;28;20024;-81
2023/05/28 03:21:40;;;;;;;9.13;3.10;;;14.80;85.80;;;;;;5076948;28;20522;-80
2023/05/28 03:24:06;;;;;;;7.63;3.10;;;14.70;86.00;;;;;;5092914;28;20028;-80
2023/05/28 03:26:31;;;;;;;9.15;3.00;;;14.70;86.10;;;;;;5077134;28;20355;-80
2023/05/28 03:28:57;;;;;;;10.25;2.65;;;14.80;86.00;;;;;;5092479;28;20040;-80
2023/05/28 03:31:29;;;;;;;5.28;2.50;;;14.80;86.30;;;;;;5076013;28;20079;-81
2023/05/28 03:33:55;;;;;;;9.38;2.97;;;14.70;87.40;;;;;;5075640;28;20492;-81
2023/05/28 03:36:22;;;;;;;9.18;3.00;;;14.70;87.70;;;;;;5076206;28;20025;-81
2023/05/28 03:38:47;;;;;;;5.50;2.83;;;14.70;87.80;;;;;;5075080;28;20033;-81
2023/05/28 03:41:13;;;;;;;9.20;3.10;;;14.60;88.50;;;;;;5076671;28;20032;-81
2023/05/28 03:43:38;;;;;;;14.93;3.10;;;14.50;88.90;;;;;;5075538;28;20025;-81
2023/05/28 03:46:04;;;;;;;7.65;3.30;;;14.50;89.10;;;;;;5075661;28;20067;-81
2023/05/28 03:48:30;;;;;;;6.30;3.17;;;14.50;89.40;;;;;;5076723;28;20047;-81
2023/05/28 03:50:56;;;;;;;8.25;3.13;;;14.60;89.80;;;;;;5075598;28;20028;-80
2023/05/28 03:53:22;;;;;;;7.57;3.13;;;14.50;90.20;;;;;;5075643;28;20024;-81
2023/05/28 03:55:48;;;;;;;6.65;3.00;;;14.50;90.20;;;;;;5076152;28;20531;-81
2023/05/28 03:58:15;;;;;;;9.80;3.10;;;14.50;90.40;;;;;;5075576;28;20050;-80
2023/05/28 04:00:41;;;;;;;7.50;3.35;;;14.50;90.60;;;;;;5076072;28;20024;-81
2023/05/28 04:03:06;;;;;;;11.80;3.42;;;14.40;90.70;;;;;;5092079;28;20048;-80
2023/05/28 04:05:33;;;;;;;9.23;3.13;;;14.50;90.80;;;;;;5075081;28;20048;-80
2023/05/28 04:07:59;;;;;;;7.72;3.25;;;14.50;90.60;;;;;;5074639;28;20134;-80
2023/05/28 04:10:25;;;;;;;6.60;2.90;;;14.60;90.80;;;;;;5075285;28;20481;-80
2023/05/28 04:12:52;;;;;;;7.80;3.45;;;14.60;90.90;;;;;;5075588;28;20029;-79
2023/05/28 04:15:18;;;;;;;9.77;3.08;;;14.50;91.10;;;;;;5075931;28;20035;-80
2023/05/28 04:17:43;;;;;;;7.38;3.08;;;14.40;91.10;;;;;;5075337;28;20029;-79
2023/05/28 04:20:10;;;;;;;7.53;3.15;;;14.30;91.40;;;;;;5075395;28;20079;-80
2023/05/28 04:22:36;;;;;;;8.85;3.35;;;14.40;91.60;;;;;;5075059;28;20024;-81
2023/05/28 04:25:02;;;;;;;8.05;3.03;;;14.40;91.60;;;;;;5075896;28;20532;-81
2023/05/28 04:27:27;;;;;;;9.88;4.07;;;14.40;91.70;;;;;;5074691;28;20035;-80
2023/05/28 04:29:54;;;;;;;8.23;3.45;;;14.40;91.80;;;;;;5075401;28;20032;-81
2023/05/28 04:32:20;;;;;;;8.90;3.67;;;14.30;91.90;;;;;;5091143;28;20123;-79
2023/05/28 04:34:47;;;;;;;7.97;3.10;;;14.30;92.00;;;;;;5075111;28;20064;-80
2023/05/28 04:37:12;;;;;;;8.85;3.10;;;14.40;92.20;;;;;;5074570;28;20029;-80
2023/05/28 04:39:38;;;;;;;11.27;2.92;;;14.40;92.30;;;;;;5074304;28;20465;-80
2023/05/28 04:42:07;;;;;;;9.70;3.70;;;14.40;92.20;;;;;;5090866;28;20389;-80
2023/05/28 04:44:33;;;;;;;8.55;3.10;;;14.40;92.20;;;;;;5091347;28;20091;-80
2023/05/28 04:46:59;;;;;;;8.68;3.50;;;14.40;92.30;;;;;;5074904;28;20016;-80
2023/05/28 04:49:25;;;;;;;7.70;3.53;;;14.40;92.40;;;;;;5074544;28;20032;-80
2023/05/28 04:51:51;;;;;;;8.55;3.08;;;14.40;92.40;;;;;;5075015;28;20025;-81
2023/05/28 04:54:17;;;;;;;7.15;3.58;;;14.40;92.50;;;;;;5074869;28;20033;-80
2023/05/28 04:56:42;;;;;;;9.18;3.33;;;14.40;92.70;;;;;;5074048;28;20032;-81
2023/05/28 04:59:09;;;;;;;7.85;4.28;;;14.30;92.60;;;;;;5074444;28;20033;-80
2023/05/28 05:01:35;;;;;;;8.27;3.58;;;14.30;92.80;;;;;;5075097;28;20040;-79
2023/05/28 05:04:01;;;;;;;7.93;3.00;;;14.30;92.90;;;;;;5073997;28;20028;-81
2023/05/28 05:06:27;;;;;;;7.75;3.60;;;14.30;92.90;;;;;;5074223;28;20033;-81
2023/05/28 05:08:53;;;;;;;9.73;3.20;;;14.40;93.10;;;;;;5074327;28;20085;-80
2023/05/28 05:11:20;;;;;;;5.95;2.90;;;14.30;93.00;;;;;;5091060;28;20484;-81
2023/05/28 05:13:45;;;;;;;6.90;2.97;;;14.30;93.20;;;;;;5074947;28;20028;-81
2023/05/28 05:16:12;;;;;;;7.35;3.17;;;14.30;93.20;;;;;;5073334;28;20024;-81
2023/05/28 05:18:38;;;;;;;6.63;3.28;;;14.40;93.20;;;;;;5074901;28;20071;-80
2023/05/28 05:21:03;;;;;;;8.23;3.28;;;14.40;93.20;;;;;;5073251;28;20032;-80
2023/05/28 05:23:29;;;;;;;8.88;4.20;;;14.40;93.30;;;;;;5073665;28;20039;-80
2023/05/28 05:25:55;;;;;;;8.68;3.60;;;14.40;93.40;;;;;;5073196;28;20058;-79
2023/05/28 05:28:20;;;;;;;6.38;3.05;;;14.40;93.40;;;;;;5073685;28;20024;-80
2023/05/28 05:30:47;;;;;;;8.27;3.05;;;14.50;93.40;;;;;;5073142;28;20025;-80
2023/05/28 05:33:12;;;;;;;7.93;3.10;;;14.50;93.40;;;;;;5074657;28;20024;-80
2023/05/28 05:35:38;;;;;;;6.90;2.85;;;14.60;93.30;;;;;;5073182;28;20031;-80
2023/05/28 05:38:03;;;;;;;6.40;3.17;;;14.60;93.40;;;;;;5073136;28;20039;-79
2023/05/28 05:40:29;;;;;;;9.75;2.97;;;14.70;93.20;;;;;;5090308;28;20127;-79
2023/05/28 05:42:55;;;;;;;7.68;2.90;;;14.70;93.00;;;;;;5074188;28;20025;-79
2023/05/28 05:45:21;;;;;;;7.45;2.85;;;14.80;92.70;;;;;;5074544;28;20025;-79
2023/05/28 05:47:46;;;;;;;7.57;2.97;;;14.90;92.60;;;;;;5073118;28;20031;-79
2023/05/28 05:50:12;;;;;;;7.90;3.13;;;14.90;92.40;;;;;;5074420;28;20028;-79
2023/05/28 05:52:38;;;;;;;7.45;2.95;;;15.00;92.30;;;;;;5074896;28;20035;-79
2023/05/28 05:55:05;;;;;;;5.82;2.58;;;15.00;92.60;;;;;;5072698;28;20215;-79
2023/05/28 05:57:32;;;;;;;10.70;3.00;;;15.00;92.10;;;;;;5073313;28;20115;-78
2023/05/28 05:59:57;;;;;;;5.55;2.70;;;15.10;91.90;;;;;;5089309;28;20044;-79
2023/05/28 06:02:23;;;;;;;5.20;2.65;;;15.10;91.60;;;;;;5073032;28;20044;-79
2023/05/28 06:04:49;;;;;;;11.43;2.78;;;15.20;91.60;;;;;;5072530;28;20380;-80
2023/05/28 06:07:14;;;;;;;6.47;2.67;;;15.20;91.20;;;;;;5074049;28;20024;-80
2023/05/28 06:09:40;;;;;;;7.65;2.83;;;15.20;91.50;;;;;;5089765;28;20035;-79
2023/05/28 06:12:06;;;;;;;6.65;2.40;;;15.30;91.40;;;;;;5073306;28;20111;-79
2023/05/28 06:14:32;;;;;;;9.77;3.08;;;15.30;91.50;;;;;;5074081;28;20082;-80
2023/05/28 06:16:58;;;;;;;8.00;2.70;;;15.30;91.50;;;;;;5072312;28;20036;-79
2023/05/28 06:19:23;;;;;;;6.60;2.45;;;15.40;91.40;;;;;;5073664;28;20032;-80
2023/05/28 06:21:49;;;;;;;5.07;2.50;;;15.40;91.00;;;;;;5072292;28;20036;-80
2023/05/28 06:24:14;;;;;;;9.20;3.03;;;15.50;91.10;;;;;;5073814;28;20067;-79
2023/05/28 06:26:40;;;;;;;7.22;2.63;;;15.50;91.20;;;;;;5072716;28;20031;-79
2023/05/28 06:29:07;;;;;;;5.72;2.53;;;15.50;91.10;;;;;;5071715;28;20196;-79
2023/05/28 06:31:33;;;;;;;6.88;2.80;;;15.60;91.30;;;;;;5072501;28;20025;-78
2023/05/28 06:33:59;;;;;;;8.65;2.72;;;15.60;90.90;;;;;;5073214;28;20028;-80
2023/05/28 06:36:24;;;;;;;5.38;3.15;;;15.60;90.70;;;;;;5073599;28;20032;-80
2023/05/28 06:38:50;;;;;;;7.30;2.65;;;15.60;90.80;;;;;;5073369;28;20028;-80
2023/05/28 06:41:15;;;;;;;5.75;2.58;;;15.70;91.10;;;;;;5072751;28;20119;-79
2023/05/28 06:43:41;;;;;;;6.97;2.88;;;15.70;90.80;;;;;;5072628;28;20028;-79
2023/05/28 06:46:08;;;;;;;7.53;2.63;;;15.70;91.00;;;;;;5089126;28;20032;-80
2023/05/28 06:48:33;;;;;;;9.45;3.30;;;15.80;90.70;;;;;;5072657;28;20074;-80
2023/05/28 06:50:59;;;;;;;9.95;3.05;;;15.80;90.60;;;;;;5076512;28;20389;-80
2023/05/28 06:53:25;;;;;;;5.93;2.63;;;15.80;90.10;;;;;;5076751;28;20029;-80
2023/05/28 06:55:51;;;;;;;7.32;2.65;;;15.90;90.20;;;;;;5077517;28;20111;-80
2023/05/28 06:58:16;;;;;;;9.93;2.85;;;15.90;90.10;;;;;;5077791;28;20288;-79
2023/05/28 07:00:42;;;;;;;7.95;2.88;;;15.90;90.20;;;;;;5076240;28;20409;-80
2023/05/28 07:03:08;;;;;;;7.20;2.63;;;16.00;90.20;;;;;;5075929;28;20338;-79
2023/05/28 07:05:35;;;;;;;5.70;2.38;;;16.00;90.20;;;;;;5093282;28;20025;-80
2023/05/28 07:08:01;;;;;;;8.75;2.55;;;16.00;90.10;;;;;;5076627;28;20074;-80
2023/05/28 07:10:27;;;;;;;6.60;2.80;;;16.10;90.00;;;;;;5076958;28;20033;-80
2023/05/28 07:12:52;;;;;;;6.80;2.88;;;16.10;90.10;;;;;;5075400;28;20032;-80
2023/05/28 07:15:18;;;;;;;9.25;2.83;;;16.10;90.30;;;;;;5092978;28;20063;-78
2023/05/28 07:17:44;;;;;;;5.22;2.58;;;16.20;90.00;;;;;;5076294;28;20032;-79
2023/05/28 07:20:09;;;;;;;6.20;2.83;;;16.20;90.20;;;;;;5076013;28;20055;-80
2023/05/28 07:22:35;;;;;;;5.03;2.63;;;16.20;90.00;;;;;;5076303;28;20030;-79
2023/05/28 07:25:01;;;;;;;6.20;2.22;;;16.30;88.90;;;;;;5070853;28;20032;-83
2023/05/28 07:27:26;;;;;;;7.72;2.80;;;16.30;88.90;;;;;;5067097;28;20468;-84
2023/05/28 07:29:52;;;;;;;7.85;2.45;;;16.30;89.50;;;;;;5064587;28;20465;-84
2023/05/28 07:32:17;;;;;;;7.55;2.67;;;16.40;89.60;;;;;;5087880;28;20028;-83
2023/05/28 07:34:43;;;;;;;7.57;2.72;;;16.50;89.10;;;;;;5063857;28;20028;-83
2023/05/28 07:37:08;;;;;;;7.68;2.72;;;16.50;88.70;;;;;;5066546;28;20045;-83
2023/05/28 07:39:34;;;;;;;7.03;2.63;;;16.50;89.00;;;;;;5071468;28;20038;-89
2023/05/28 07:42:00;;;;;;;7.78;3.03;;;16.60;88.80;;;;;;5059795;28;20025;-84
2023/05/28 07:44:26;;;;;;;8.18;2.80;;;16.60;89.20;;;;;;5066133;28;20024;-84
2023/05/28 07:46:51;;;;;;;6.40;2.83;;;16.60;89.00;;;;;;5066594;28;20099;-85
2023/05/28 07:49:17;;;;;;;8.52;2.47;;;16.60;89.10;;;;;;5067933;28;20036;-88
2023/05/28 07:51:43;;;;;;;7.28;2.50;;;16.70;88.80;;;;;;5076600;28;20085;-87
2023/05/28 07:54:08;;;;;;;6.75;2.40;;;16.70;89.10;;;;;;5071383;28;20124;-88
2023/05/28 07:56:34;;;;;;;5.05;2.58;;;16.80;89.50;;;;;;5073692;28;20051;-87
2023/05/28 07:59:00;;;;;;;6.85;2.80;;;16.90;88.70;;;;;;5065534;28;20115;-95
2023/05/28 08:01:25;;;;;;;7.60;3.03;;;16.90;87.90;;;;;;5078595;28;20535;-92
2023/05/28 08:03:54;;;;;;;5.82;2.60;;;17.00;88.00;;;;;;5086338;28;20466;-91
2023/05/28 08:06:20;;;;;;;11.02;2.63;;;17.00;87.20;;;;;;5070279;28;20041;-86
2023/05/28 08:08:46;;;;;;;6.75;2.88;;;17.00;87.00;;;;;;5063219;28;20029;-87
2023/05/28 08:11:13;;;;;;;5.53;2.60;;;17.10;88.10;;;;;;5062960;28;20036;-86
2023/05/28 08:13:39;;;;;;;6.18;2.50;;;17.20;88.20;;;;;;5071260;28;20031;-86
2023/05/28 08:16:05;;;;;;;6.20;2.67;;;17.20;86.20;;;;;;5060931;28;20028;-88
2023/05/28 08:18:30;;;;;;;6.78;2.88;;;17.30;86.80;;;;;;5070441;28;20029;-87
2023/05/28 08:20:56;;;;;;;9.00;3.33;;;17.30;87.80;;;;;;5059913;28;20029;-86
2023/05/28 08:23:22;;;;;;;6.05;2.72;;;17.40;88.30;;;;;;5055923;28;20083;-87
2023/05/28 08:25:47;;;;;;;7.28;2.67;;;17.40;87.40;;;;;;5077428;28;20032;-86
2023/05/28 08:28:16;;;;;;;7.70;3.17;;;17.40;86.50;;;;;;5060647;28;20025;-87
2023/05/28 08:30:42;;;;;;;8.93;2.88;;;17.50;87.60;;;;;;5075996;28;20070;-87
2023/05/28 08:33:07;;;;;;;10.38;2.78;;;17.60;85.90;;;;;;5062895;28;20029;-87
2023/05/28 08:35:33;;;;;;;7.82;2.80;;;17.60;86.40;;;;;;5069475;28;20025;-86
2023/05/28 08:37:58;;;;;;;4.78;2.58;;;17.60;85.90;;;;;;5057637;28;20458;-91
2023/05/28 08:40:25;;;;;;;6.38;2.70;;;17.70;85.00;;;;;;5068929;28;20029;-90
2023/05/28 08:42:51;;;;;;;6.47;2.45;;;17.80;85.10;;;;;;5064547;28;20100;-86
2023/05/28 08:45:17;;;;;;;7.57;3.00;;;17.80;85.60;;;;;;5063235;28;20059;-87
2023/05/28 08:47:43;;;;;;;9.23;2.85;;;17.80;86.70;;;;;;5054345;28;20029;-88
2023/05/28 08:50:10;;;;;;;5.10;2.42;;;17.90;85.30;;;;;;5070291;28;20039;-87
2023/05/28 08:52:36;;;;;;;5.70;2.50;;;17.90;85.60;;;;;;5054293;28;20032;-89
2023/05/28 08:55:03;;;;;;;8.45;2.63;;;17.90;85.00;;;;;;5064048;28;20100;-92
2023/05/28 08:57:30;;;;;;;6.78;2.78;;;18.00;85.20;;;;;;5075180;28;20052;-91
2023/05/28 08:59:59;;;;;;;9.07;2.80;;;18.00;85.90;;;;;;5056699;28;20131;-89
2023/05/28 09:02:25;;;;;;;7.82;2.70;;;18.10;85.50;;;;;;5069838;28;20036;-92
2023/05/28 09:04:51;;;;;;;7.25;2.80;;;18.10;85.90;;;;;;5063197;28;20029;-91
2023/05/28 09:07:17;;;;;;;6.32;3.22;;;18.10;85.50;;;;;;5083120;28;20024;-90
2023/05/28 09:09:43;;;;;;;6.82;2.50;;;18.30;84.10;;;;;;5064931;28;20040;-88
2023/05/28 09:12:12;;;;;;;5.93;2.40;;;18.40;85.10;;;;;;5068865;28;20173;-92
2023/05/28 09:14:40;;;;;;;6.18;2.42;;;18.40;86.50;;;;;;5072121;28;20518;-88
2023/05/28 09:17:06;;;;;;;4.55;2.75;;;18.50;85.50;;;;;;5071965;28;20063;-90
2023/05/28 09:19:31;;;;;;;5.75;2.40;;;18.50;84.50;;;;;;5067658;28;20091;-84
2023/05/28 09:21:59;;;;;;;10.85;2.60;;;18.60;83.70;;;;;;5068092;28;20032;-83
2023/05/28 09:24:27;;;;;;;6.32;2.78;;;18.60;83.30;;;;;;5066990;28;20111;-83
2023/05/28 09:26:57;;;;;;;6.53;2.75;;;18.70;83.20;;;;;;5064850;28;20021;-84
2023/05/28 09:29:26;;;;;;;5.90;2.33;;;18.70;82.00;;;;;;5069477;28;20032;-84
2023/05/28 09:31:57;;;;;;;7.00;2.70;;;18.80;82.30;;;;;;5068684;28;20024;-84
2023/05/28 09:34:27;;;;;;;7.43;2.70;;;18.90;81.20;;;;;;5067474;28;20020;-85
2023/05/28 09:36:53;;;;;;;6.63;2.77;;;19.00;82.70;;;;;;5071889;28;20028;-83
2023/05/28 09:39:25;;;;;;;7.28;2.75;;;19.10;82.30;;;;;;5072633;28;20032;-83
2023/05/28 09:42:06;;;;;;;4.25;2.42;;;19.10;81.20;;;;;;5072345;28;20052;-84
2023/05/28 09:44:32;;;;;;;6.38;2.28;;;19.20;81.40;;;;;;5066384;28;20035;-83
2023/05/28 09:46:58;;;;;;;7.47;2.70;;;19.20;81.80;;;;;;5069565;28;20024;-84
2023/05/28 09:49:27;;;;;;;8.13;3.20;;;19.30;80.70;;;;;;5071991;28;20021;-82
2023/05/28 09:51:57;;;;;;;8.65;2.55;;;19.40;81.10;;;;;;5069472;28;20021;-83
2023/05/28 09:54:26;;;;;;;10.05;3.28;;;19.40;81.70;;;;;;5071116;28;20078;-83
2023/05/28 09:56:53;;;;;;;7.35;2.58;;;19.50;82.70;;;;;;5071566;28;20339;-82
2023/05/28 09:59:19;;;;;;;5.78;2.90;;;19.50;79.70;;;;;;5069713;28;20032;-82
2023/05/28 10:01:52;;;;;;;7.55;2.25;;;19.60;79.00;;;;;;5069353;28;20132;-82
2023/05/28 10:04:27;;;;;;;8.57;2.53;;;19.60;79.00;;;;;;5069596;28;20469;-82
2023/05/28 10:06:53;;;;;;;5.00;2.50;;;19.70;81.70;;;;;;5068596;28;20024;-82
2023/05/28 10:09:19;;;;;;;6.90;2.55;;;19.70;81.00;;;;;;5059090;28;20124;-84
2023/05/28 10:12:01;;;;;;;6.40;2.80;;;19.90;80.80;;;;;;5057034;28;20029;-88
2023/05/28 10:14:26;;;;;;;11.38;4.78;;;19.80;79.20;;;;;;5073780;28;20016;-84
2023/05/28 10:16:52;;;;;;;7.03;3.55;;;19.90;78.70;;;;;;5063746;28;20048;-85
2023/05/28 10:19:18;;;;;;;8.70;2.88;;;20.00;78.30;;;;;;5053780;28;20501;-89
2023/05/28 10:21:44;;;;;;;6.53;2.83;;;20.00;77.40;;;;;;5073231;28;20025;-88
2023/05/28 10:24:11;;;;;;;7.80;2.60;;;20.10;77.80;;;;;;5056149;28;20024;-87
2023/05/28 10:26:37;;;;;;;6.47;2.47;;;20.10;78.90;;;;;;5064992;28;20381;-89
2023/05/28 10:29:09;;;;;;;6.57;2.95;;;20.30;80.90;;;;;;5063841;28;20028;-89
2023/05/28 10:31:35;;;;;;;5.75;2.42;;;20.40;77.60;;;;;;5059288;28;20094;-88
2023/05/28 10:34:00;;;;;;;6.43;2.70;;;20.40;77.20;;;;;;5059709;28;20437;-86
2023/05/28 10:36:26;;;;;;;9.13;2.50;;;20.50;76.10;;;;;;5067714;28;20112;-89
2023/05/28 10:38:52;;;;;;;6.78;2.67;;;20.60;77.50;;;;;;5061198;28;20028;-88
2023/05/28 10:41:19;;;;;;;10.07;2.90;;;20.70;77.40;;;;;;5059657;28;20382;-88
2023/05/28 10:43:46;;;;;;;5.28;2.70;;;20.70;75.80;;;;;;5068924;28;20025;-86
2023/05/28 10:46:15;;;;;;;6.47;2.50;;;20.70;73.40;;;;;;5054967;28;20024;-87
2023/05/28 10:48:41;;;;;;;6.85;2.58;;;20.90;73.60;;;;;;5065700;28;20013;-91
2023/05/28 10:51:08;;;;;;;6.97;2.60;;;21.00;75.10;;;;;;5063127;28;20048;-86
2023/05/28 10:53:34;;;;;;;9.98;3.17;;;20.90;74.30;;;;;;5071569;28;20036;-88
2023/05/28 10:56:01;;;;;;;6.28;2.85;;;21.00;74.80;;;;;;5069187;28;20028;-88
2023/05/28 10:58:32;;;;;;;5.28;2.30;;;21.10;75.80;;;;;;5061651;28;20035;-86
2023/05/28 11:01:18;;;;;;;7.40;2.70;;;21.20;76.50;;;;;;5061632;28;20460;-84
2023/05/28 11:03:55;;;;;;;9.40;2.88;;;21.30;78.50;;;;;;5056024;28;20033;-84
2023/05/28 11:06:24;;;;;;;6.50;2.50;;;21.40;75.00;;;;;;5057396;28;20020;-84
2023/05/28 11:08:50;;;;;;;4.53;2.25;;;21.30;75.00;;;;;;5062479;28;20412;-83
2023/05/28 11:11:17;;;;;;;7.40;2.70;;;21.40;75.40;;;;;;5064092;28;20116;-84
2023/05/28 11:13:47;;;;;;;7.18;2.75;;;21.50;74.10;;;;;;5057176;28;20036;-84
2023/05/28 11:16:16;;;;;;;6.15;2.67;;;21.70;73.60;;;;;;5057283;28;20071;-86
2023/05/28 11:19:01;;;;;;;6.68;2.63;;;21.70;73.20;;;;;;5071435;28;20111;-83
2023/05/28 11:21:27;;;;;;;6.80;2.50;;;21.70;72.70;;;;;;5058880;28;20536;-83
2023/05/28 11:24:03;;;;;;;6.88;2.20;;;21.80;72.50;;;;;;5068788;28;20033;-83
2023/05/28 11:26:30;;;;;;;7.82;3.00;;;21.80;72.60;;;;;;5067633;28;20031;-87
2023/05/28 11:28:55;;;;;;;8.43;2.70;;;21.80;71.60;;;;;;5071498;28;20021;-85
2023/05/28 11:31:21;;;;;;;7.32;2.63;;;21.90;75.20;;;;;;5058400;28;20370;-86
2023/05/28 11:33:50;;;;;;;6.22;3.00;;;22.00;75.40;;;;;;5068770;28;20477;-86
2023/05/28 11:36:17;;;;;;;7.18;2.92;;;22.10;73.20;;;;;;5057584;28;20040;-87
2023/05/28 11:38:43;;;;;;;7.25;2.60;;;22.20;71.60;;;;;;5068275;28;20103;-83
2023/05/28 11:41:09;;;;;;;6.55;2.28;;;22.20;71.10;;;;;;5063548;28;20415;-79
2023/05/28 11:43:35;;;;;;;7.65;2.58;;;22.30;72.00;;;;;;5069961;28;20028;-80
2023/05/28 11:46:01;;;;;;;6.55;2.60;;;22.30;70.70;;;;;;5066945;28;20508;-80
2023/05/28 11:48:27;;;;;;;6.82;2.60;;;22.40;69.60;;;;;;5084277;28;20025;-84
2023/05/28 11:51:02;;;;;;;4.65;2.30;;;22.50;67.00;;;;;;5065192;28;20145;-83
2023/05/28 11:53:44;;;;;;;9.15;2.78;;;22.50;69.10;;;;;;5062492;28;20033;-84
2023/05/28 11:56:11;;;;;;;4.78;2.30;;;22.70;69.80;;;;;;5076287;28;20035;-83
2023/05/28 11:58:40;;;;;;;4.63;2.20;;;22.70;68.80;;;;;;5070202;28;20040;-83
2023/05/28 12:01:06;;;;;;;5.95;2.50;;;22.80;69.80;;;;;;5067640;28;20070;-86
2023/05/28 12:03:32;;;;;;;5.50;2.10;;;22.80;68.70;;;;;;5075557;28;20111;-89
2023/05/28 12:05:58;;;;;;;9.05;4.10;;;22.90;66.50;;;;;;5060738;28;20040;-89
2023/05/28 12:08:25;;;;;;;9.93;5.80;;;22.90;65.20;;;;;;5070986;28;20029;-83
2023/05/28 12:10:51;;;;;;;10.60;2.70;;;23.00;64.80;;;;;;5064705;28;20036;-83
2023/05/28 12:13:17;;;;;;;7.15;2.20;;;23.00;66.70;;;;;;5062888;28;20029;-82
2023/05/28 12:15:43;;;;;;;5.30;2.78;;;23.10;69.20;;;;;;5065812;28;20037;-82
2023/05/28 12:18:09;;;;;;;5.78;2.47;;;23.20;66.70;;;;;;5070834;28;20123;-83
2023/05/28 12:20:39;;;;;;;7.60;2.38;;;23.30;63.20;;;;;;5062029;28;20104;-84
2023/05/28 12:23:13;;;;;;;5.68;2.35;;;23.30;64.30;;;;;;5064181;28;20033;-81
2023/05/28 12:25:41;;;;;;;5.20;2.00;;;23.40;66.00;;;;;;5072529;28;20032;-90
2023/05/28 12:28:07;;;;;;;3.60;2.20;;;23.60;62.30;;;;;;5074500;28;20038;-86
2023/05/28 12:30:33;;;;;;;3.25;2.00;;;23.70;62.50;;;;;;5068649;28;20032;-82
2023/05/28 12:32:58;;;;;;;7.15;2.35;;;23.70;61.40;;;;;;5072996;28;20488;-82
2023/05/28 12:35:24;;;;;;;4.13;2.15;;;23.90;64.30;;;;;;5071197;28;20158;-81
2023/05/28 12:37:50;;;;;;;5.50;2.28;;;24.00;63.20;;;;;;5069857;28;20032;-82
2023/05/28 12:40:15;;;;;;;7.10;2.33;;;24.10;60.50;;;;;;5087790;28;20033;-82
2023/05/28 12:42:41;;;;;;;4.07;2.22;;;24.30;62.60;;;;;;5071388;28;20025;-82